sensor_id;sensor_type;location;lat;lon;timestamp;temperature;humidity
16116;DHT22;8162;47.104;15.432;2023-07-29T11:12:46;25.30;57.20
16116;DHT22;8162;47.104;15.432;2023-07-29T11:15:48;25.30;57.50
16116;DHT22;8162;47.104;15.432;2023-07-29T11:18:50;25.30;58.70
16116;DHT22;8162;47.104;15.432;2023-07-29T11:21:52;25.30;59.20
16116;DHT22;8162;47.104;15.432;2023-07-29T11:24:54;25.30;62.00
16116;DHT22;8162;47.104;15.432;2023-07-29T11:27:56;25.40;61.60
16116;DHT22;8162;47.104;15.432;2023-07-29T11:30:57;25.60;63.80
16116;DHT22;8162;47.104;15.432;2023-07-29T11:33:58;25.60;61.90
16116;DHT22;8162;47.104;15.432;2023-07-29T11:37:00;25.80;62.60
16116;DHT22;8162;47.104;15.432;2023-07-29T11:49:05;25.80;61.30
16116;DHT22;8162;47.104;15.432;2023-07-29T11:52:09;26.50;55.00
16116;DHT22;8162;47.104;15.432;2023-07-29T11:55:12;26.60;56.90
16116;DHT22;8162;47.104;15.432;2023-07-29T11:58:13;26.70;57.40
16116;DHT22;8162;47.104;15.432;2023-07-29T12:01:16;26.90;57.00
16116;DHT22;8162;47.104;15.432;2023-07-29T12:04:17;27.20;57.10
16116;DHT22;8162;47.104;15.432;2023-07-29T12:07:18;27.50;55.60
16116;DHT22;8162;47.104;15.432;2023-07-29T12:10:19;28.00;56.80
16116;DHT22;8162;47.104;15.432;2023-07-29T12:13:24;28.90;53.30
16116;DHT22;8162;47.104;15.432;2023-07-29T12:19:35;30.10;51.70
16116;DHT22;8162;47.104;15.432;2023-07-29T12:22:35;30.10;51.40
16116;DHT22;8162;47.104;15.432;2023-07-29T12:25:36;30.50;49.50
16116;DHT22;8162;47.104;15.432;2023-07-29T12:28:38;30.50;49.80
16116;DHT22;8162;47.104;15.432;2023-07-29T12:31:38;30.50;49.10
16116;DHT22;8162;47.104;15.432;2023-07-29T12:37:40;30.10;50.00
16116;DHT22;8162;47.104;15.432;2023-07-29T12:40:44;30.00;50.10
16116;DHT22;8162;47.104;15.432;2023-07-29T12:43:45;30.20;51.00
16116;DHT22;8162;47.104;15.432;2023-07-29T12:46:46;30.10;51.30
16116;DHT22;8162;47.104;15.432;2023-07-29T12:52:47;29.50;48.00
16116;DHT22;8162;47.104;15.432;2023-07-29T13:13:54;27.50;56.00
16116;DHT22;8162;47.104;15.432;2023-07-29T13:50:07;26.70;65.30
16116;DHT22;8162;47.104;15.432;2023-07-29T13:53:08;27.80;77.50
16116;DHT22;8162;47.104;15.432;2023-07-29T13:56:09;28.10;73.00
16116;DHT22;8162;47.104;15.432;2023-07-29T13:59:09;28.50;68.60
16116;DHT22;8162;47.104;15.432;2023-07-29T14:02:10;28.80;68.30
16116;DHT22;8162;47.104;15.432;2023-07-29T14:05:11;28.90;65.20
16116;DHT22;8162;47.104;15.432;2023-07-29T14:08:12;29.00;63.80
16116;DHT22;8162;47.104;15.432;2023-07-29T14:11:12;29.00;65.70
16116;DHT22;8162;47.104;15.432;2023-07-29T14:14:13;29.10;66.70
16116;DHT22;8162;47.104;15.432;2023-07-29T14:17:14;29.10;66.50
16116;DHT22;8162;47.104;15.432;2023-07-29T14:20:14;28.90;65.70
16116;DHT22;8162;47.104;15.432;2023-07-29T14:23:15;28.60;65.30
16116;DHT22;8162;47.104;15.432;2023-07-29T15:26:39;28.10;70.10
16116;DHT22;8162;47.104;15.432;2023-07-29T15:29:40;29.10;63.90
16116;DHT22;8162;47.104;15.432;2023-07-29T15:32:41;29.10;63.20
16116;DHT22;8162;47.104;15.432;2023-07-29T15:35:42;29.10;63.50
16116;DHT22;8162;47.104;15.432;2023-07-29T15:38:43;29.10;62.90
16116;DHT22;8162;47.104;15.432;2023-07-29T15:41:43;29.10;62.00
16116;DHT22;8162;47.104;15.432;2023-07-29T15:44:44;29.10;61.50
16116;DHT22;8162;47.104;15.432;2023-07-29T15:47:45;29.00;62.30
16116;DHT22;8162;47.104;15.432;2023-07-29T15:50:45;29.00;61.20
16116;DHT22;8162;47.104;15.432;2023-07-29T15:53:46;29.00;62.00
16116;DHT22;8162;47.104;15.432;2023-07-29T15:56:47;29.00;62.20
